sensor_id;sensor_type;location;lat;lon;timestamp;pressure;altitude;pressure_sealevel;temperature;humidity
23733;BME280;12047;53.450;-2.286;2023-03-07T00:02:02;99697.41;;;11.16;100.00
23733;BME280;12047;53.450;-2.286;2023-03-07T00:07:03;99695.50;;;10.35;100.00
23733;BME280;12047;53.450;-2.286;2023-03-07T00:12:04;99700.84;;;10.68;100.00
23733;BME280;12047;53.450;-2.286;2023-03-07T00:17:04;99699.88;;;10.93;100.00
23733;BME280;12047;53.450;-2.286;2023-03-07T00:22:05;99701.38;;;10.79;100.00
23733;BME280;12047;53.450;-2.286;2023-03-07T00:27:06;99688.06;;;10.39;100.00
23733;BME280;12047;53.450;-2.286;2023-03-07T00:32:07;99694.53;;;10.52;100.00
23733;BME280;12047;53.450;-2.286;2023-03-07T00:37:08;99684.44;;;10.64;100.00
23733;BME280;12047;53.450;-2.286;2023-03-07T00:42:09;99681.78;;;10.48;100.00
23733;BME280;12047;53.450;-2.286;2023-03-07T00:47:09;99689.47;;;10.83;100.00
23733;BME280;12047;53.450;-2.286;2023-03-07T00:52:10;99684.47;;;10.72;100.00
23733;BME280;12047;53.450;-2.286;2023-03-07T00:57:11;99679.31;;;10.54;100.00
23733;BME280;12047;53.450;-2.286;2023-03-07T01:02:11;99678.84;;;10.75;100.00
23733;BME280;12047;53.450;-2.286;2023-03-07T01:07:12;99674.56;;;11.07;100.00
23733;BME280;12047;53.450;-2.286;2023-03-07T01:12:13;99678.88;;;10.83;100.00
23733;BME280;12047;53.450;-2.286;2023-03-07T01:17:13;99679.00;;;10.57;100.00
23733;BME280;12047;53.450;-2.286;2023-03-07T01:22:14;99684.09;;;10.51;100.00
23733;BME280;12047;53.450;-2.286;2023-03-07T01:27:14;99672.34;;;10.53;100.00
23733;BME280;12047;53.450;-2.286;2023-03-07T01:32:15;99670.34;;;10.39;100.00
23733;BME280;12047;53.450;-2.286;2023-03-07T01:37:15;99657.19;;;10.13;100.00
23733;BME280;12047;53.450;-2.286;2023-03-07T01:42:19;99668.53;;;10.48;100.00
23733;BME280;12047;53.450;-2.286;2023-03-07T01:47:20;99663.78;;;10.76;100.00
23733;BME280;12047;53.450;-2.286;2023-03-07T01:52:41;99664.56;;;10.36;100.00
23733;BME280;12047;53.450;-2.286;2023-03-07T01:57:44;99663.56;;;10.45;100.00
23733;BME280;12047;53.450;-2.286;2023-03-07T02:02:50;99658.59;;;10.34;100.00
23733;BME280;12047;53.450;-2.286;2023-03-07T02:07:55;99648.78;;;10.26;100.00
23733;BME280;12047;53.450;-2.286;2023-03-07T02:12:59;99647.50;;;10.30;100.00
23733;BME280;12047;53.450;-2.286;2023-03-07T02:18:00;99652.63;;;10.32;100.00
23733;BME280;12047;53.450;-2.286;2023-03-07T02:23:02;99651.59;;;10.25;100.00
23733;BME280;12047;53.450;-2.286;2023-03-07T02:28:04;99644.34;;;10.27;100.00
23733;BME280;12047;53.450;-2.286;2023-03-07T02:33:08;99643.06;;;10.55;100.00
23733;BME280;12047;53.450;-2.286;2023-03-07T02:38:08;99641.72;;;10.51;100.00
23733;BME280;12047;53.450;-2.286;2023-03-07T02:43:09;99642.69;;;10.34;100.00
23733;BME280;12047;53.450;-2.286;2023-03-07T02:48:10;99634.88;;;9.48;100.00
23733;BME280;12047;53.450;-2.286;2023-03-07T02:53:11;99641.97;;;9.73;100.00
23733;BME280;12047;53.450;-2.286;2023-03-07T02:58:15;99636.19;;;9.78;100.00
23733;BME280;12047;53.450;-2.286;2023-03-07T03:03:15;99639.28;;;10.15;100.00
23733;BME280;12047;53.450;-2.286;2023-03-07T03:08:17;99634.34;;;10.12;100.00
23733;BME280;12047;53.450;-2.286;2023-03-07T03:13:23;99636.03;;;9.79;100.00
23733;BME280;12047;53.450;-2.286;2023-03-07T03:18:28;99626.66;;;9.85;100.00
23733;BME280;12047;53.450;-2.286;2023-03-07T03:23:29;99623.22;;;10.01;100.00
23733;BME280;12047;53.450;-2.286;2023-03-07T03:28:30;99635.41;;;9.85;100.00
23733;BME280;12047;53.450;-2.286;2023-03-07T03:33:32;99627.88;;;10.07;100.00
23733;BME280;12047;53.450;-2.286;2023-03-07T03:38:36;99640.47;;;10.13;100.00
23733;BME280;12047;53.450;-2.286;2023-03-07T03:43:37;99646.50;;;10.31;99.77
23733;BME280;12047;53.450;-2.286;2023-03-07T03:48:38;99643.56;;;9.32;100.00
23733;BME280;12047;53.450;-2.286;2023-03-07T03:53:40;99638.78;;;9.70;100.00
23733;BME280;12047;53.450;-2.286;2023-03-07T03:58:41;99635.22;;;9.79;100.00
23733;BME280;12047;53.450;-2.286;2023-03-07T04:03:44;99638.81;;;9.44;100.00
23733;BME280;12047;53.450;-2.286;2023-03-07T04:08:45;99642.19;;;9.02;100.00
23733;BME280;12047;53.450;-2.286;2023-03-07T04:13:46;99644.75;;;9.72;98.39
23733;BME280;12047;53.450;-2.286;2023-03-07T04:18:46;99641.66;;;9.76;96.56
23733;BME280;12047;53.450;-2.286;2023-03-07T04:23:49;99637.66;;;9.38;94.11
23733;BME280;12047;53.450;-2.286;2023-03-07T04:28:54;99623.91;;;8.65;100.00
23733;BME280;12047;53.450;-2.286;2023-03-07T04:33:55;99632.28;;;8.61;98.83
23733;BME280;12047;53.450;-2.286;2023-03-07T04:38:58;99635.75;;;8.79;95.38
23733;BME280;12047;53.450;-2.286;2023-03-07T04:43:59;99634.38;;;9.44;94.26
23733;BME280;12047;53.450;-2.286;2023-03-07T04:48:59;99635.94;;;9.89;91.17
23733;BME280;12047;53.450;-2.286;2023-03-07T04:54:00;99641.63;;;9.42;91.42
23733;BME280;12047;53.450;-2.286;2023-03-07T04:59:01;99639.72;;;9.01;92.73
23733;BME280;12047;53.450;-2.286;2023-03-07T05:04:01;99641.16;;;8.77;93.40
23733;BME280;12047;53.450;-2.286;2023-03-07T05:09:02;99637.28;;;8.64;92.89
23733;BME280;12047;53.450;-2.286;2023-03-07T05:14:03;99631.47;;;8.60;93.06
23733;BME280;12047;53.450;-2.286;2023-03-07T05:19:04;99636.72;;;8.42;93.46
23733;BME280;12047;53.450;-2.286;2023-03-07T05:24:06;99637.94;;;8.03;95.00
23733;BME280;12047;53.450;-2.286;2023-03-07T05:29:06;99645.41;;;8.07;94.14
23733;BME280;12047;53.450;-2.286;2023-03-07T05:34:07;99644.63;;;8.42;93.58
23733;BME280;12047;53.450;-2.286;2023-03-07T05:39:10;99647.22;;;8.70;92.57
23733;BME280;12047;53.450;-2.286;2023-03-07T05:44:10;99649.19;;;8.23;94.61
23733;BME280;12047;53.450;-2.286;2023-03-07T05:49:11;99654.06;;;8.45;93.51
23733;BME280;12047;53.450;-2.286;2023-03-07T05:54:11;99647.50;;;8.67;91.84
23733;BME280;12047;53.450;-2.286;2023-03-07T05:59:12;99644.41;;;8.71;91.95
23733;BME280;12047;53.450;-2.286;2023-03-07T06:04:15;99631.97;;;8.81;91.59
23733;BME280;12047;53.450;-2.286;2023-03-07T06:09:16;99641.47;;;9.18;91.65
23733;BME280;12047;53.450;-2.286;2023-03-07T06:14:16;99646.13;;;8.98;90.11
23733;BME280;12047;53.450;-2.286;2023-03-07T06:19:17;99646.19;;;9.06;91.65
23733;BME280;12047;53.450;-2.286;2023-03-07T06:24:18;99648.19;;;8.86;92.20
23733;BME280;12047;53.450;-2.286;2023-03-07T06:29:19;99649.09;;;8.77;92.13
23733;BME280;12047;53.450;-2.286;2023-03-07T06:34:22;99649.56;;;8.55;93.38
23733;BME280;12047;53.450;-2.286;2023-03-07T06:39:22;99653.94;;;8.64;94.72
23733;BME280;12047;53.450;-2.286;2023-03-07T06:44:23;99655.59;;;8.20;94.56
23733;BME280;12047;53.450;-2.286;2023-03-07T06:49:23;99662.31;;;8.14;94.25
23733;BME280;12047;53.450;-2.286;2023-03-07T06:54:24;99673.75;;;8.05;94.12
23733;BME280;12047;53.450;-2.286;2023-03-07T06:59:25;99672.34;;;8.29;95.48
23733;BME280;12047;53.450;-2.286;2023-03-07T07:04:25;99668.19;;;8.08;95.71
23733;BME280;12047;53.450;-2.286;2023-03-07T07:09:26;99673.03;;;8.13;98.41
23733;BME280;12047;53.450;-2.286;2023-03-07T07:14:28;99678.44;;;8.39;96.77
23733;BME280;12047;53.450;-2.286;2023-03-07T07:19:29;99681.78;;;8.31;98.37
23733;BME280;12047;53.450;-2.286;2023-03-07T07:24:29;99682.75;;;8.30;98.61
23733;BME280;12047;53.450;-2.286;2023-03-07T07:29:30;99688.63;;;8.24;98.09
23733;BME280;12047;53.450;-2.286;2023-03-07T07:34:31;99686.53;;;8.28;98.58
23733;BME280;12047;53.450;-2.286;2023-03-07T07:39:31;99692.00;;;8.44;98.11
23733;BME280;12047;53.450;-2.286;2023-03-07T07:44:32;99702.22;;;9.10;94.34
23733;BME280;12047;53.450;-2.286;2023-03-07T07:49:33;99698.53;;;9.80;93.72
23733;BME280;12047;53.450;-2.286;2023-03-07T07:54:34;99707.50;;;10.80;89.82
23733;BME280;12047;53.450;-2.286;2023-03-07T07:59:35;99711.91;;;10.39;89.06
23733;BME280;12047;53.450;-2.286;2023-03-07T08:04:45;99715.94;;;11.48;86.09
23733;BME280;12047;53.450;-2.286;2023-03-07T08:09:46;99728.38;;;9.65;82.88
23733;BME280;12047;53.450;-2.286;2023-03-07T08:14:48;99726.88;;;10.22;80.38
23733;BME280;12047;53.450;-2.286;2023-03-07T08:19:49;99730.72;;;10.86;79.74
23733;BME280;12047;53.450;-2.286;2023-03-07T08:24:49;99736.34;;;10.99;79.38
23733;BME280;12047;53.450;-2.286;2023-03-07T08:29:53;99727.25;;;11.26;79.92
23733;BME280;12047;53.450;-2.286;2023-03-07T08:34:54;99721.31;;;12.12;79.62
23733;BME280;12047;53.450;-2.286;2023-03-07T08:39:54;99729.25;;;12.51;75.73
23733;BME280;12047;53.450;-2.286;2023-03-07T08:44:55;99739.78;;;11.73;71.96
23733;BME280;12047;53.450;-2.286;2023-03-07T08:49:55;99733.00;;;11.78;73.52
23733;BME280;12047;53.450;-2.286;2023-03-07T08:54:56;99737.69;;;11.28;71.65
23733;BME280;12047;53.450;-2.286;2023-03-07T09:00:05;99733.03;;;11.62;71.55
23733;BME280;12047;53.450;-2.286;2023-03-07T09:05:11;99740.97;;;12.65;70.54
23733;BME280;12047;53.450;-2.286;2023-03-07T09:10:12;99739.06;;;12.81;69.32
23733;BME280;12047;53.450;-2.286;2023-03-07T09:15:12;99742.31;;;13.75;67.85
23733;BME280;12047;53.450;-2.286;2023-03-07T09:20:15;99739.91;;;13.94;66.20
23733;BME280;12047;53.450;-2.286;2023-03-07T09:25:17;99758.41;;;11.08;67.87
23733;BME280;12047;53.450;-2.286;2023-03-07T09:30:18;99752.91;;;11.82;69.68
23733;BME280;12047;53.450;-2.286;2023-03-07T09:35:18;99740.84;;;12.58;68.66
23733;BME280;12047;53.450;-2.286;2023-03-07T09:40:23;99760.03;;;11.74;67.52
23733;BME280;12047;53.450;-2.286;2023-03-07T09:45:43;99759.69;;;12.40;64.10
23733;BME280;12047;53.450;-2.286;2023-03-07T09:50:57;99751.09;;;12.92;63.89
23733;BME280;12047;53.450;-2.286;2023-03-07T09:56:02;99758.72;;;12.33;62.04
23733;BME280;12047;53.450;-2.286;2023-03-07T10:01:05;99757.31;;;13.53;60.61
23733;BME280;12047;53.450;-2.286;2023-03-07T10:06:18;99757.13;;;13.54;64.11
23733;BME280;12047;53.450;-2.286;2023-03-07T10:27:35;99755.25;;;13.78;62.01
23733;BME280;12047;53.450;-2.286;2023-03-07T10:32:58;99744.66;;;12.86;60.66
23733;BME280;12047;53.450;-2.286;2023-03-07T10:38:08;99749.16;;;13.09;59.41
23733;BME280;12047;53.450;-2.286;2023-03-07T10:43:24;99751.50;;;12.50;61.41
23733;BME280;12047;53.450;-2.286;2023-03-07T10:48:27;99746.22;;;12.42;61.87
23733;BME280;12047;53.450;-2.286;2023-03-07T10:53:33;99751.06;;;12.38;64.48
23733;BME280;12047;53.450;-2.286;2023-03-07T10:58:34;99753.16;;;12.51;60.63
23733;BME280;12047;53.450;-2.286;2023-03-07T11:03:54;99754.06;;;11.72;62.33
23733;BME280;12047;53.450;-2.286;2023-03-07T11:09:07;99752.91;;;12.91;61.38
23733;BME280;12047;53.450;-2.286;2023-03-07T11:14:11;99754.22;;;12.95;60.61
23733;BME280;12047;53.450;-2.286;2023-03-07T11:24:38;99759.72;;;11.85;61.88
23733;BME280;12047;53.450;-2.286;2023-03-07T11:29:39;99761.72;;;11.10;58.61
23733;BME280;12047;53.450;-2.286;2023-03-07T11:34:52;99764.34;;;11.50;59.98
23733;BME280;12047;53.450;-2.286;2023-03-07T11:50:38;99764.97;;;11.93;58.02
23733;BME280;12047;53.450;-2.286;2023-03-07T11:55:46;99757.97;;;12.55;59.17
23733;BME280;12047;53.450;-2.286;2023-03-07T12:11:44;99767.31;;;11.64;51.71
23733;BME280;12047;53.450;-2.286;2023-03-07T12:22:21;99774.94;;;11.91;49.98
23733;BME280;12047;53.450;-2.286;2023-03-07T12:27:34;99776.47;;;11.29;51.80
23733;BME280;12047;53.450;-2.286;2023-03-07T12:32:37;99776.97;;;11.81;51.73
23733;BME280;12047;53.450;-2.286;2023-03-07T12:37:55;99773.31;;;11.49;54.78
23733;BME280;12047;53.450;-2.286;2023-03-07T12:43:19;99776.97;;;11.81;53.04
23733;BME280;12047;53.450;-2.286;2023-03-07T12:48:41;99777.63;;;11.34;53.41
23733;BME280;12047;53.450;-2.286;2023-03-07T12:53:59;99774.34;;;12.36;53.50
23733;BME280;12047;53.450;-2.286;2023-03-07T12:59:11;99774.63;;;11.21;52.24
23733;BME280;12047;53.450;-2.286;2023-03-07T13:09:38;99756.44;;;12.22;51.74
23733;BME280;12047;53.450;-2.286;2023-03-07T13:30:28;99767.97;;;11.90;53.29
23733;BME280;12047;53.450;-2.286;2023-03-07T13:45:53;99753.34;;;12.02;52.45
23733;BME280;12047;53.450;-2.286;2023-03-07T14:22:20;99751.69;;;12.09;52.90
23733;BME280;12047;53.450;-2.286;2023-03-07T14:27:23;99755.81;;;12.12;54.11
23733;BME280;12047;53.450;-2.286;2023-03-07T14:32:28;99757.09;;;12.24;53.26
23733;BME280;12047;53.450;-2.286;2023-03-07T14:37:30;99756.88;;;11.70;52.35
23733;BME280;12047;53.450;-2.286;2023-03-07T14:42:37;99746.88;;;12.44;52.44
23733;BME280;12047;53.450;-2.286;2023-03-07T14:52:55;99751.75;;;11.77;52.31
23733;BME280;12047;53.450;-2.286;2023-03-07T14:57:57;99764.03;;;11.78;53.00
23733;BME280;12047;53.450;-2.286;2023-03-07T15:03:04;99758.72;;;11.45;51.86
23733;BME280;12047;53.450;-2.286;2023-03-07T15:08:18;99751.44;;;11.47;51.67
23733;BME280;12047;53.450;-2.286;2023-03-07T15:13:48;99745.44;;;12.33;52.77
23733;BME280;12047;53.450;-2.286;2023-03-07T15:19:15;99748.13;;;11.62;54.50
23733;BME280;12047;53.450;-2.286;2023-03-07T15:24:36;99742.84;;;11.37;57.75
23733;BME280;12047;53.450;-2.286;2023-03-07T15:29:43;99752.72;;;11.76;57.15
23733;BME280;12047;53.450;-2.286;2023-03-07T15:34:58;99754.06;;;11.15;58.45
23733;BME280;12047;53.450;-2.286;2023-03-07T15:40:23;99753.91;;;11.00;59.09
23733;BME280;12047;53.450;-2.286;2023-03-07T15:50:30;99744.13;;;11.01;58.51
23733;BME280;12047;53.450;-2.286;2023-03-07T15:55:30;99744.78;;;10.95;57.93
23733;BME280;12047;53.450;-2.286;2023-03-07T16:00:35;99745.78;;;11.02;58.39
23733;BME280;12047;53.450;-2.286;2023-03-07T16:05:36;99736.63;;;10.72;58.06
23733;BME280;12047;53.450;-2.286;2023-03-07T16:10:42;99745.78;;;10.85;58.68
23733;BME280;12047;53.450;-2.286;2023-03-07T16:15:44;99728.69;;;10.72;60.96
23733;BME280;12047;53.450;-2.286;2023-03-07T16:20:45;99734.38;;;11.09;61.41
23733;BME280;12047;53.450;-2.286;2023-03-07T16:25:54;99730.38;;;10.97;60.65
23733;BME280;12047;53.450;-2.286;2023-03-07T16:30:57;99733.00;;;10.81;58.45
23733;BME280;12047;53.450;-2.286;2023-03-07T16:35:58;99729.03;;;10.77;58.01
23733;BME280;12047;53.450;-2.286;2023-03-07T16:41:13;99729.88;;;10.94;56.67
23733;BME280;12047;53.450;-2.286;2023-03-07T16:46:16;99730.88;;;10.84;57.64
23733;BME280;12047;53.450;-2.286;2023-03-07T16:51:22;99736.44;;;10.65;57.06
23733;BME280;12047;53.450;-2.286;2023-03-07T16:56:30;99740.94;;;10.73;54.58
23733;BME280;12047;53.450;-2.286;2023-03-07T17:01:31;99740.78;;;10.74;54.86
23733;BME280;12047;53.450;-2.286;2023-03-07T17:06:32;99733.75;;;10.49;57.63
23733;BME280;12047;53.450;-2.286;2023-03-07T17:11:33;99738.72;;;10.52;56.01
23733;BME280;12047;53.450;-2.286;2023-03-07T17:16:42;99738.81;;;10.26;58.41
23733;BME280;12047;53.450;-2.286;2023-03-07T17:21:43;99736.22;;;10.08;57.50
23733;BME280;12047;53.450;-2.286;2023-03-07T17:26:53;99740.00;;;10.40;58.00
23733;BME280;12047;53.450;-2.286;2023-03-07T17:31:57;99745.69;;;10.53;58.64
23733;BME280;12047;53.450;-2.286;2023-03-07T17:36:58;99748.16;;;10.12;58.81
23733;BME280;12047;53.450;-2.286;2023-03-07T17:42:00;99749.78;;;9.53;59.37
23733;BME280;12047;53.450;-2.286;2023-03-07T17:47:01;99749.06;;;12.40;64.76
23733;BME280;12047;53.450;-2.286;2023-03-07T17:52:03;99747.47;;;11.11;59.97
23733;BME280;12047;53.450;-2.286;2023-03-07T17:57:05;99740.94;;;9.88;60.09
23733;BME280;12047;53.450;-2.286;2023-03-07T18:02:10;99748.50;;;9.83;60.81
23733;BME280;12047;53.450;-2.286;2023-03-07T18:07:11;99756.06;;;9.78;60.52
23733;BME280;12047;53.450;-2.286;2023-03-07T18:12:23;99755.22;;;10.04;61.25
23733;BME280;12047;53.450;-2.286;2023-03-07T18:17:30;99765.66;;;10.31;60.18
23733;BME280;12047;53.450;-2.286;2023-03-07T18:22:39;99764.75;;;10.22;60.59
23733;BME280;12047;53.450;-2.286;2023-03-07T18:27:41;99761.78;;;10.68;60.48
23733;BME280;12047;53.450;-2.286;2023-03-07T18:32:44;99767.28;;;9.11;62.27
23733;BME280;12047;53.450;-2.286;2023-03-07T18:37:54;99762.09;;;9.63;62.28
23733;BME280;12047;53.450;-2.286;2023-03-07T18:43:01;99757.50;;;9.99;62.55
23733;BME280;12047;53.450;-2.286;2023-03-07T18:48:10;99760.00;;;9.74;62.46
23733;BME280;12047;53.450;-2.286;2023-03-07T18:58:56;99759.19;;;9.74;63.40
23733;BME280;12047;53.450;-2.286;2023-03-07T19:04:00;99760.44;;;9.62;62.94
23733;BME280;12047;53.450;-2.286;2023-03-07T19:09:38;99759.78;;;9.68;64.11
23733;BME280;12047;53.450;-2.286;2023-03-07T19:14:38;99751.63;;;9.17;65.19
23733;BME280;12047;53.450;-2.286;2023-03-07T19:19:44;99744.66;;;8.91;66.14
23733;BME280;12047;53.450;-2.286;2023-03-07T19:24:49;99749.94;;;11.29;72.08
23733;BME280;12047;53.450;-2.286;2023-03-07T19:29:59;99751.91;;;9.50;67.41
23733;BME280;12047;53.450;-2.286;2023-03-07T19:35:00;99739.56;;;9.33;68.15
23733;BME280;12047;53.450;-2.286;2023-03-07T19:40:00;99736.06;;;8.89;68.35
23733;BME280;12047;53.450;-2.286;2023-03-07T19:45:02;99745.09;;;9.47;67.15
23733;BME280;12047;53.450;-2.286;2023-03-07T19:50:06;99738.47;;;9.43;67.86
23733;BME280;12047;53.450;-2.286;2023-03-07T20:00:56;99749.34;;;9.58;69.24
23733;BME280;12047;53.450;-2.286;2023-03-07T20:06:30;99747.50;;;9.33;70.03
23733;BME280;12047;53.450;-2.286;2023-03-07T20:11:41;99740.03;;;9.54;68.97
23733;BME280;12047;53.450;-2.286;2023-03-07T20:16:51;99749.06;;;9.69;69.16
23733;BME280;12047;53.450;-2.286;2023-03-07T20:22:04;99749.88;;;9.44;69.03
23733;BME280;12047;53.450;-2.286;2023-03-07T20:27:08;99739.34;;;8.73;71.33
23733;BME280;12047;53.450;-2.286;2023-03-07T20:32:11;99740.00;;;9.28;69.41
23733;BME280;12047;53.450;-2.286;2023-03-07T20:37:15;99718.13;;;9.18;71.04
23733;BME280;12047;53.450;-2.286;2023-03-07T20:42:18;99724.84;;;8.32;72.28
23733;BME280;12047;53.450;-2.286;2023-03-07T20:47:19;99720.44;;;8.32;72.59
23733;BME280;12047;53.450;-2.286;2023-03-07T20:52:20;99721.25;;;7.59;77.67
23733;BME280;12047;53.450;-2.286;2023-03-07T20:57:22;99718.34;;;8.26;76.76
23733;BME280;12047;53.450;-2.286;2023-03-07T21:02:26;99712.28;;;8.43;76.55
23733;BME280;12047;53.450;-2.286;2023-03-07T21:07:27;99701.09;;;8.77;75.56
23733;BME280;12047;53.450;-2.286;2023-03-07T21:12:27;99692.69;;;7.54;81.01
23733;BME280;12047;53.450;-2.286;2023-03-07T21:17:28;99679.66;;;7.53;81.94
23733;BME280;12047;53.450;-2.286;2023-03-07T21:22:29;99666.50;;;8.07;80.01
23733;BME280;12047;53.450;-2.286;2023-03-07T21:27:30;99661.16;;;8.17;79.80
23733;BME280;12047;53.450;-2.286;2023-03-07T21:32:32;99657.19;;;8.40;79.44
23733;BME280;12047;53.450;-2.286;2023-03-07T21:37:36;99650.00;;;8.50;77.93
23733;BME280;12047;53.450;-2.286;2023-03-07T21:42:36;99650.41;;;8.10;78.30
23733;BME280;12047;53.450;-2.286;2023-03-07T21:47:37;99640.88;;;8.17;77.54
23733;BME280;12047;53.450;-2.286;2023-03-07T21:52:38;99639.31;;;8.25;78.72
23733;BME280;12047;53.450;-2.286;2023-03-07T21:57:38;99632.47;;;8.32;78.15
23733;BME280;12047;53.450;-2.286;2023-03-07T22:02:42;99633.50;;;7.76;79.13
23733;BME280;12047;53.450;-2.286;2023-03-07T22:07:42;99638.75;;;7.76;79.89
23733;BME280;12047;53.450;-2.286;2023-03-07T22:12:43;99640.47;;;7.30;82.76
23733;BME280;12047;53.450;-2.286;2023-03-07T22:17:43;99628.94;;;7.96;80.77
23733;BME280;12047;53.450;-2.286;2023-03-07T22:22:44;99633.09;;;6.68;90.36
23733;BME280;12047;53.450;-2.286;2023-03-07T22:27:44;99636.91;;;7.59;86.02
23733;BME280;12047;53.450;-2.286;2023-03-07T22:32:45;99629.56;;;7.90;83.54
23733;BME280;12047;53.450;-2.286;2023-03-07T22:37:45;99629.66;;;7.24;84.35
23733;BME280;12047;53.450;-2.286;2023-03-07T22:42:46;99628.88;;;6.94;84.17
23733;BME280;12047;53.450;-2.286;2023-03-07T22:47:47;99626.16;;;6.38;83.13
23733;BME280;12047;53.450;-2.286;2023-03-07T22:52:47;99628.22;;;6.25;85.48
23733;BME280;12047;53.450;-2.286;2023-03-07T22:57:48;99609.13;;;6.42;86.00
23733;BME280;12047;53.450;-2.286;2023-03-07T23:02:48;99597.34;;;7.22;82.57
23733;BME280;12047;53.450;-2.286;2023-03-07T23:07:51;99597.63;;;6.53;83.25
23733;BME280;12047;53.450;-2.286;2023-03-07T23:12:54;99604.56;;;6.34;86.69
23733;BME280;12047;53.450;-2.286;2023-03-07T23:17:55;99572.66;;;6.76;84.23
23733;BME280;12047;53.450;-2.286;2023-03-07T23:22:58;99583.63;;;6.04;88.25
23733;BME280;12047;53.450;-2.286;2023-03-07T23:28:02;99572.34;;;7.35;83.61
23733;BME280;12047;53.450;-2.286;2023-03-07T23:33:02;99565.19;;;6.71;84.23
23733;BME280;12047;53.450;-2.286;2023-03-07T23:38:06;99562.84;;;6.01;86.97
23733;BME280;12047;53.450;-2.286;2023-03-07T23:43:11;99552.22;;;6.12;87.69
23733;BME280;12047;53.450;-2.286;2023-03-07T23:48:15;99531.69;;;6.64;85.89
23733;BME280;12047;53.450;-2.286;2023-03-07T23:53:16;99534.41;;;5.66;89.19
23733;BME280;12047;53.450;-2.286;2023-03-07T23:58:16;99531.84;;;5.45;92.03
